Time;durP1;ratioP1;P1;durP2;ratioP2;P2;SDS_P1;SDS_P2;PMS_P1;PMS_P2;Temp;Humidity;BMP_temperature;BMP_pressure;BME280_temperature;BME280_humidity;BME280_pressure;Samples;Min_cycle;Max_cycle;Signal;HPM_P1;HPM_P2
2024/01/27 00:02:11;;;;;;;4.23;1.00;;;;;;;2.80;59.63;95848.03;5091771;28;20909;-55
2024/01/27 00:04:39;;;;;;;1.83;1.33;;;;;;;2.79;59.83;95850.81;5091361;28;20447;-55
2024/01/27 00:07:08;;;;;;;0.90;0.90;;;;;;;2.54;59.80;95830.59;5091894;28;20932;-55
2024/01/27 00:09:37;;;;;;;18.97;1.20;;;;;;;2.77;59.80;95882.44;5091808;28;20444;-55
2024/01/27 00:12:06;;;;;;;2.00;1.63;;;;;;;2.81;60.04;95872.38;5091902;28;20972;-56
2024/01/27 00:14:39;;;;;;;1.00;1.00;;;;;;;2.77;60.03;95877.22;5091615;28;20795;-56
2024/01/27 00:17:07;;;;;;;1.47;1.47;;;;;;;2.84;59.88;95887.66;5091987;28;20501;-56
2024/01/27 00:19:36;;;;;;;1.17;0.90;;;;;;;2.69;60.09;95894.94;5090597;28;20953;-56
2024/01/27 00:22:09;;;;;;;1.77;1.67;;;;;;;2.65;60.69;95901.63;5091867;28;20444;-56
2024/01/27 00:24:37;;;;;;;0.77;0.53;;;;;;;2.67;60.85;95900.41;5091639;28;20432;-56
2024/01/27 00:27:06;;;;;;;2.20;1.60;;;;;;;2.41;60.03;95859.41;5091808;28;20428;-56
2024/01/27 00:29:36;;;;;;;1.17;0.90;;;;;;;2.67;60.34;95910.06;5091033;28;20432;-56
2024/01/27 00:32:05;;;;;;;3.60;0.80;;;;;;;2.35;59.78;95854.97;5091372;28;20531;-55
2024/01/27 00:34:34;;;;;;;1.03;0.90;;;;;;;2.70;60.15;95907.03;5091813;28;20437;-56
2024/01/27 00:37:02;;;;;;;1.10;1.03;;;;;;;2.63;60.00;95908.88;5091104;28;20444;-56
2024/01/27 00:39:33;;;;;;;1.30;1.27;;;;;;;2.63;60.02;95924.56;5091882;28;20843;-56
2024/01/27 00:42:02;;;;;;;0.60;0.57;;;;;;;2.69;60.37;95916.69;5090740;28;20540;-55
2024/01/27 00:44:30;;;;;;;7.50;2.70;;;;;;;2.67;59.91;95915.28;5092011;28;20436;-56
2024/01/27 00:47:00;;;;;;;1.37;1.27;;;;;;;2.65;59.95;95905.03;5091720;28;20514;-55
2024/01/27 00:49:29;;;;;;;1.90;0.60;;;;;;;2.54;60.32;95896.00;5091124;28;20916;-56
2024/01/27 00:51:58;;;;;;;0.60;0.50;;;;;;;2.44;60.62;95879.94;5091424;28;20448;-56
2024/01/27 00:54:27;;;;;;;1.63;1.63;;;;;;;2.57;60.74;95902.63;5091248;28;20475;-57
2024/01/27 00:56:55;;;;;;;2.13;0.87;;;;;;;2.60;60.71;95897.00;5091097;28;20443;-56
2024/01/27 00:59:24;;;;;;;0.60;0.57;;;;;;;2.54;60.83;95888.16;5091860;28;20436;-57
2024/01/27 01:01:53;;;;;;;1.03;1.03;;;;;;;2.52;60.90;95886.75;5091298;28;20902;-56
2024/01/27 01:04:23;;;;;;;2.27;0.60;;;;;;;2.52;61.00;95877.09;5091478;28;20980;-56
2024/01/27 01:06:52;;;;;;;3.07;0.70;;;;;;;2.53;60.67;95868.22;5091144;28;20766;-57
2024/01/27 01:09:20;;;;;;;1.17;0.80;;;;;;;2.44;60.82;95876.50;5091117;28;20808;-57
2024/01/27 01:11:49;;;;;;;1.63;0.53;;;;;;;2.42;61.17;95874.09;5094946;28;20439;-56
2024/01/27 01:14:18;;;;;;;1.07;0.80;;;;;;;2.42;60.88;95858.41;5095678;28;20883;-57
2024/01/27 01:16:46;;;;;;;0.60;0.60;;;;;;;2.24;61.68;95876.56;5095014;28;20447;-56
2024/01/27 01:19:15;;;;;;;1.07;0.97;;;;;;;1.82;63.47;95877.78;5095470;28;20990;-56
2024/01/27 01:21:45;;;;;;;1.63;1.53;;;;;;;1.96;63.60;95883.00;5095049;28;20476;-57
2024/01/27 01:24:14;;;;;;;1.27;0.73;;;;;;;1.80;63.63;95881.59;5095157;28;20535;-56
2024/01/27 01:26:42;;;;;;;1.07;1.07;;;;;;;2.14;63.36;95864.91;5095085;28;20497;-56
2024/01/27 01:29:11;;;;;;;0.30;0.30;;;;;;;2.35;62.00;95873.28;5094416;28;20936;-56
2024/01/27 01:31:42;;;;;;;0.70;0.70;;;;;;;2.45;61.70;95859.81;5094904;28;20967;-57
2024/01/27 01:34:10;;;;;;;0.97;0.37;;;;;;;2.59;61.66;95861.38;5092292;28;20428;-56
2024/01/27 01:36:39;;;;;;;1.13;0.87;;;;;;;2.58;61.17;95870.25;5094397;28;20443;-56
2024/01/27 01:39:12;;;;;;;0.40;0.30;;;;;;;2.49;61.23;95874.06;5094388;28;20928;-56
2024/01/27 01:41:42;;;;;;;0.77;0.77;;;;;;;2.52;61.19;95877.09;5094420;28;20513;-57
2024/01/27 01:44:11;;;;;;;1.70;0.40;;;;;;;2.61;60.62;95882.91;5094757;28;20485;-57
2024/01/27 01:46:39;;;;;;;1.37;0.30;;;;;;;2.50;61.39;95876.47;5081327;28;20437;-56
2024/01/27 01:49:08;;;;;;;0.57;0.47;;;;;;;2.41;61.81;95893.41;5068352;28;20447;-56
2024/01/27 01:51:37;;;;;;;0.70;0.60;;;;;;;1.91;62.11;95813.84;5094383;28;20479;-55
2024/01/27 01:54:07;;;;;;;2.10;1.20;;;;;;;2.32;62.30;95883.38;5094654;28;20524;-55
2024/01/27 01:56:38;;;;;;;4.63;2.20;;;;;;;2.04;62.61;95886.22;5094610;28;20485;-56
2024/01/27 01:59:07;;;;;;;0.70;0.70;;;;;;;2.04;63.21;95885.41;5094838;28;20444;-56
2024/01/27 02:01:35;;;;;;;1.20;1.10;;;;;;;1.95;62.19;95840.38;5093335;28;20519;-55
2024/01/27 02:04:05;;;;;;;1.60;1.50;;;;;;;2.27;61.97;95886.59;5094399;28;20440;-56
2024/01/27 02:06:34;;;;;;;1.80;0.57;;;;;;;2.25;61.62;95878.13;5093464;28;20814;-56
2024/01/27 02:09:05;;;;;;;2.43;1.37;;;;;;;2.20;62.44;95872.72;5082779;28;20441;-56
2024/01/27 02:11:33;;;;;;;2.37;2.17;;;;;;;2.21;62.47;95856.03;5092051;28;20464;-56
2024/01/27 02:14:04;;;;;;;1.80;1.70;;;;;;;1.90;63.15;95848.81;5093759;28;20444;-56
2024/01/27 02:16:32;;;;;;;2.00;1.90;;;;;;;1.71;63.67;95856.69;5093945;28;20439;-56
2024/01/27 02:19:01;;;;;;;1.20;0.70;;;;;;;1.85;63.69;95839.97;5094268;28;20454;-56
2024/01/27 02:21:30;;;;;;;0.50;0.50;;;;;;;1.98;62.73;95849.63;5067454;28;20468;-56
2024/01/27 02:23:59;;;;;;;1.17;0.77;;;;;;;1.90;63.46;95848.00;5092934;28;20882;-56
2024/01/27 02:26:29;;;;;;;0.93;0.83;;;;;;;1.96;63.35;95851.63;5094149;28;20520;-56
2024/01/27 02:28:58;;;;;;;1.03;0.83;;;;;;;1.63;64.92;95856.88;5093583;28;20531;-56
2024/01/27 02:31:26;;;;;;;1.77;1.00;;;;;;;1.46;64.16;95821.69;5093669;28;20448;-56
2024/01/27 02:33:55;;;;;;;1.43;1.30;;;;;;;1.62;64.90;95858.66;5093130;28;20957;-56
2024/01/27 02:36:24;;;;;;;1.10;1.10;;;;;;;1.74;64.66;95867.53;5093720;28;20539;-57
2024/01/27 02:38:53;;;;;;;1.37;1.27;;;;;;;1.76;64.73;95862.09;5093065;28;20440;-56
2024/01/27 02:41:22;;;;;;;3.23;0.97;;;;;;;1.82;64.04;95848.25;5093510;28;20541;-57
2024/01/27 02:43:52;;;;;;;1.73;0.90;;;;;;;1.83;64.41;95847.22;5093494;28;20436;-56
2024/01/27 02:46:20;;;;;;;2.80;0.87;;;;;;;1.67;64.36;95831.97;5093375;28;20779;-57
2024/01/27 02:48:49;;;;;;;1.93;0.67;;;;;;;1.75;64.84;95857.88;5093173;28;20443;-55
2024/01/27 02:51:21;;;;;;;2.93;0.57;;;;;;;1.67;64.68;95864.09;5092764;28;20501;-56
2024/01/27 02:53:50;;;;;;;2.10;1.90;;;;;;;1.43;65.96;95835.16;5092894;28;20472;-56
2024/01/27 02:56:19;;;;;;;1.00;1.00;;;;;;;1.32;65.84;95854.03;5093174;28;20452;-56
2024/01/27 02:58:47;;;;;;;1.20;1.20;;;;;;;1.12;68.30;95843.53;5067031;28;20447;-56
2024/01/27 03:01:17;;;;;;;1.33;0.90;;;;;;;1.37;68.19;95877.75;5092665;28;20436;-56
2024/01/27 03:03:46;;;;;;;1.73;0.70;;;;;;;1.46;66.72;95855.66;5092629;28;20472;-56
2024/01/27 03:06:15;;;;;;;0.93;0.93;;;;;;;1.40;66.41;95867.69;5093025;28;20960;-56
2024/01/27 03:08:43;;;;;;;1.30;0.83;;;;;;;1.36;66.74;95856.06;5092987;28;20437;-56
2024/01/27 03:11:12;;;;;;;1.80;0.70;;;;;;;1.39;66.21;95847.00;5093074;28;20497;-56
2024/01/27 03:13:44;;;;;;;0.93;0.93;;;;;;;1.55;65.20;95851.84;5092751;28;20936;-56
2024/01/27 03:16:14;;;;;;;0.50;0.40;;;;;;;1.59;64.83;95856.47;5092669;28;20495;-56
2024/01/27 03:18:44;;;;;;;0.80;0.80;;;;;;;1.54;65.47;95852.84;5092800;28;20444;-57
2024/01/27 03:21:13;;;;;;;1.37;1.37;;;;;;;1.48;65.20;95841.41;5092937;28;20869;-56
2024/01/27 03:23:41;;;;;;;3.33;0.73;;;;;;;1.60;65.31;95841.59;5091851;28;20432;-55
2024/01/27 03:26:10;;;;;;;2.50;1.07;;;;;;;1.71;64.68;95828.75;5091550;28;20429;-55
2024/01/27 03:28:39;;;;;;;1.30;1.30;;;;;;;1.28;65.46;95763.03;5092465;28;20523;-55
2024/01/27 03:31:07;;;;;;;2.30;1.27;;;;;;;1.76;65.07;95815.06;5092042;28;20439;-56
2024/01/27 03:33:36;;;;;;;0.67;0.67;;;;;;;1.81;64.76;95802.19;5091249;28;20451;-55
2024/01/27 03:36:10;;;;;;;1.00;0.83;;;;;;;1.43;64.58;95748.97;5092508;28;20816;-57
2024/01/27 03:38:39;;;;;;;1.17;1.07;;;;;;;1.75;65.38;95803.00;5092425;28;20531;-55
2024/01/27 03:41:08;;;;;;;2.70;1.63;;;;;;;1.56;66.22;95802.03;5092505;28;20436;-56
2024/01/27 03:43:37;;;;;;;1.60;1.50;;;;;;;1.71;65.54;95807.03;5092226;28;20485;-57
2024/01/27 03:46:05;;;;;;;4.33;1.77;;;;;;;1.77;65.64;95824.53;5091728;28;21114;-56
2024/01/27 03:48:35;;;;;;;1.27;1.17;;;;;;;1.33;65.59;95770.28;5092216;28;20505;-56
2024/01/27 03:51:04;;;;;;;3.10;1.17;;;;;;;2.01;65.39;95831.72;5092145;28;20450;-56
2024/01/27 03:53:34;;;;;;;1.60;1.17;;;;;;;1.30;65.17;95760.22;5091386;28;20972;-56
2024/01/27 03:56:04;;;;;;;5.73;1.47;;;;;;;1.27;67.42;95838.94;5091952;28;20889;-56
2024/01/27 03:58:33;;;;;;;1.47;1.37;;;;;;;1.43;67.33;95835.16;5092437;28;20432;-56
2024/01/27 04:01:01;;;;;;;2.83;2.23;;;;;;;1.32;67.56;95831.31;5092032;28;20486;-56
2024/01/27 04:03:30;;;;;;;0.67;0.67;;;;;;;1.27;68.33;95828.50;5091269;28;20891;-56
2024/01/27 04:05:59;;;;;;;2.23;2.03;;;;;;;1.57;66.33;95824.50;5091717;28;20448;-56
2024/01/27 04:08:27;;;;;;;1.83;1.00;;;;;;;1.72;66.57;95840.00;5091753;28;20448;-56
2024/01/27 04:10:57;;;;;;;1.77;1.33;;;;;;;1.32;67.88;95839.16;5091436;28;20440;-55
2024/01/27 04:13:26;;;;;;;0.60;0.50;;;;;;;1.42;67.90;95844.00;5091516;28;20448;-56
2024/01/27 04:15:57;;;;;;;1.33;1.30;;;;;;;1.54;68.26;95837.19;5091796;28;20447;-55
2024/01/27 04:18:25;;;;;;;4.23;0.93;;;;;;;1.70;67.13;95823.69;5092438;28;20439;-56
2024/01/27 04:20:54;;;;;;;2.73;0.83;;;;;;;1.63;67.60;95839.38;5091853;28;20897;-56
2024/01/27 04:23:23;;;;;;;0.83;0.83;;;;;;;1.54;68.13;95816.28;5090882;28;20479;-56
2024/01/27 04:25:51;;;;;;;1.03;0.77;;;;;;;1.76;67.13;95822.91;5091046;28;20928;-55
2024/01/27 04:28:21;;;;;;;1.63;1.53;;;;;;;1.78;67.37;95826.13;5091530;28;20463;-56
2024/01/27 04:30:50;;;;;;;3.70;1.13;;;;;;;1.86;67.94;95820.69;5091014;28;20439;-56
2024/01/27 04:33:18;;;;;;;1.23;1.13;;;;;;;1.06;67.58;95698.19;5091398;28;20796;-56
2024/01/27 04:35:47;;;;;;;2.10;1.40;;;;;;;1.74;67.17;95811.84;5091144;28;20954;-56
2024/01/27 04:38:16;;;;;;;1.27;1.17;;;;;;;1.66;67.54;95823.31;5091339;28;20443;-56
2024/01/27 04:40:45;;;;;;;1.20;1.20;;;;;;;1.90;67.39;95834.94;5091094;28;20448;-55
2024/01/27 04:43:18;;;;;;;2.03;1.83;;;;;;;1.92;66.03;95827.72;5091271;28;20533;-56
2024/01/27 04:45:48;;;;;;;1.07;0.97;;;;;;;0.69;65.82;95629.13;5065171;28;20440;-56
2024/01/27 04:48:17;;;;;;;5.10;1.73;;;;;;;1.90;66.03;95799.16;5090268;28;20436;-56
2024/01/27 04:50:46;;;;;;;1.83;1.73;;;;;;;2.15;65.12;95815.00;5091781;28;20436;-56
2024/01/27 04:53:15;;;;;;;0.50;0.50;;;;;;;2.24;65.11;95807.75;5090090;28;20509;-56
2024/01/27 04:55:44;;;;;;;3.60;3.07;;;;;;;2.14;65.53;95821.25;5090664;28;20447;-56
2024/01/27 04:58:12;;;;;;;4.90;1.93;;;;;;;2.30;64.80;95815.56;5090529;28;20448;-56
2024/01/27 05:00:41;;;;;;;7.40;3.80;;;;;;;2.18;64.96;95813.78;5091432;28;20439;-57
2024/01/27 05:03:13;;;;;;;6.60;3.83;;;;;;;2.05;65.83;95826.91;5090443;28;20530;-55
2024/01/27 05:05:43;;;;;;;3.83;3.40;;;;;;;1.87;65.73;95788.34;5090933;28;20440;-56
2024/01/27 05:08:12;;;;;;;5.63;4.07;;;;;;;2.11;65.76;95813.81;5090466;28;20447;-57
2024/01/27 05:10:41;;;;;;;6.53;1.93;;;;;;;2.26;65.28;95826.66;5090955;28;20442;-55
2024/01/27 05:13:09;;;;;;;3.97;3.53;;;;;;;2.25;65.34;95825.84;5090954;28;20436;-56
2024/01/27 05:15:38;;;;;;;9.30;3.47;;;;;;;2.21;65.60;95832.50;5091698;28;20981;-55
2024/01/27 05:18:07;;;;;;;17.43;2.17;;;;;;;2.17;65.77;95840.97;5089888;28;20452;-56
2024/01/27 05:20:37;;;;;;;2.70;2.47;;;;;;;2.16;66.07;95842.75;5090954;28;20444;-55
2024/01/27 05:23:06;;;;;;;2.80;2.03;;;;;;;2.14;65.79;95834.31;5091024;28;20533;-57
2024/01/27 05:25:34;;;;;;;3.40;0.90;;;;;;;2.03;66.23;95834.94;5090774;28;20444;-55
2024/01/27 05:28:03;;;;;;;2.20;1.90;;;;;;;1.87;66.91;95804.78;5090172;28;20440;-56
2024/01/27 05:30:32;;;;;;;2.60;0.90;;;;;;;2.08;66.88;95827.28;5090287;28;20843;-55
2024/01/27 05:33:01;;;;;;;3.40;2.30;;;;;;;1.92;66.91;95788.53;5090721;28;20443;-55
2024/01/27 05:35:29;;;;;;;1.13;0.90;;;;;;;2.12;66.36;95848.59;5091246;28;20440;-54
2024/01/27 05:37:59;;;;;;;1.03;1.03;;;;;;;2.44;67.00;95825.00;5091370;28;20436;-55
2024/01/27 05:40:28;;;;;;;6.43;2.60;;;;;;;2.47;65.07;95829.00;5090786;28;20489;-56
2024/01/27 05:42:57;;;;;;;2.20;2.00;;;;;;;2.24;65.42;95813.78;5090666;28;20463;-56
2024/01/27 05:45:26;;;;;;;2.13;1.23;;;;;;;2.72;65.49;95847.44;5090089;28;20441;-56
2024/01/27 05:47:55;;;;;;;3.10;1.70;;;;;;;2.76;64.41;95835.56;5090666;28;20440;-56
2024/01/27 05:50:23;;;;;;;3.00;2.00;;;;;;;2.87;64.57;95838.31;5090586;28;20523;-56
2024/01/27 05:52:52;;;;;;;1.80;1.70;;;;;;;2.80;64.30;95818.41;5090696;28;20444;-56
2024/01/27 05:55:22;;;;;;;2.13;2.03;;;;;;;2.94;64.00;95838.28;5090269;28;20475;-56
2024/01/27 05:57:51;;;;;;;2.23;1.50;;;;;;;2.61;65.18;95835.78;5094412;28;20933;-56
2024/01/27 06:00:20;;;;;;;3.53;2.10;;;;;;;2.25;65.37;95784.00;5093475;28;20439;-56
2024/01/27 06:02:49;;;;;;;5.67;3.43;;;;;;;2.68;65.13;95831.38;5094246;28;20440;-56
2024/01/27 06:05:17;;;;;;;2.30;2.20;;;;;;;2.76;65.18;95831.09;5094062;28;20501;-56
2024/01/27 06:07:47;;;;;;;2.37;2.20;;;;;;;2.54;64.82;95799.19;5093141;28;21053;-57
2024/01/27 06:10:18;;;;;;;2.50;2.13;;;;;;;2.72;64.63;95831.72;5094578;28;20509;-58
2024/01/27 06:12:48;;;;;;;23.77;4.63;;;;;;;2.69;65.06;95817.25;5094054;28;20460;-56
2024/01/27 06:15:17;;;;;;;4.27;1.50;;;;;;;2.90;64.42;95829.25;5094071;28;20436;-57
2024/01/27 06:17:45;;;;;;;1.77;1.67;;;;;;;3.04;64.05;95826.34;5093916;28;20468;-56
2024/01/27 06:20:16;;;;;;;4.33;3.47;;;;;;;2.93;64.59;95837.50;5093697;28;20433;-57
2024/01/27 06:22:44;;;;;;;3.77;3.00;;;;;;;2.84;64.88;95840.53;5084913;28;20436;-56
2024/01/27 06:25:13;;;;;;;8.50;3.80;;;;;;;2.78;65.34;95838.75;5093368;28;20480;-56
2024/01/27 06:27:42;;;;;;;4.73;3.10;;;;;;;2.82;65.14;95834.72;5093308;28;20933;-56
2024/01/27 06:30:14;;;;;;;3.40;2.00;;;;;;;2.82;64.73;95835.53;5093775;28;20436;-56
2024/01/27 06:32:42;;;;;;;6.20;3.17;;;;;;;2.77;64.90;95830.09;5093393;28;20494;-57
2024/01/27 06:35:11;;;;;;;3.77;2.70;;;;;;;2.88;64.36;95839.13;5092493;28;20440;-55
2024/01/27 06:37:40;;;;;;;3.50;3.27;;;;;;;2.96;64.83;95836.28;5093838;28;20441;-57
2024/01/27 06:40:10;;;;;;;4.73;4.33;;;;;;;2.93;64.99;95850.59;5093389;28;20440;-57
2024/01/27 06:42:38;;;;;;;11.80;3.47;;;;;;;2.95;65.52;95830.22;5093374;28;20432;-57
2024/01/27 06:45:08;;;;;;;4.63;2.40;;;;;;;2.76;65.65;95825.88;5092912;28;20534;-57
2024/01/27 06:47:40;;;;;;;3.27;3.13;;;;;;;2.68;66.39;95826.13;5093017;28;20432;-56
2024/01/27 06:50:09;;;;;;;6.43;4.20;;;;;;;2.78;66.34;95838.75;5092852;28;20447;-57
2024/01/27 06:52:38;;;;;;;11.77;5.33;;;;;;;2.74;65.72;95819.25;5093492;28;20471;-56
2024/01/27 06:55:07;;;;;;;3.70;3.33;;;;;;;2.45;65.64;95794.41;5092552;28;20480;-56
2024/01/27 06:57:36;;;;;;;5.83;3.77;;;;;;;2.81;66.25;95851.44;5092026;28;20444;-56
2024/01/27 07:00:05;;;;;;;13.10;3.00;;;;;;;2.61;66.63;95854.09;5092708;28;20952;-56
2024/01/27 07:02:34;;;;;;;4.00;2.33;;;;;;;2.55;66.67;95837.41;5092745;28;20917;-57
2024/01/27 07:05:05;;;;;;;4.00;3.20;;;;;;;2.41;66.94;95833.25;5093569;28;20476;-57
2024/01/27 07:07:34;;;;;;;10.77;1.77;;;;;;;2.63;66.21;95840.84;5092381;28;20436;-56
2024/01/27 07:10:03;;;;;;;1.77;1.67;;;;;;;2.66;66.53;95833.34;5092776;28;20428;-57
2024/01/27 07:12:31;;;;;;;1.03;0.73;;;;;;;2.73;65.64;95838.59;5092941;28;20436;-56
2024/01/27 07:15:01;;;;;;;8.03;1.67;;;;;;;2.93;65.46;95828.84;5093086;28;20473;-57
2024/01/27 07:17:30;;;;;;;4.53;1.80;;;;;;;2.81;64.95;95828.66;5092808;28;20954;-56
2024/01/27 07:19:59;;;;;;;4.27;3.53;;;;;;;2.63;65.32;95822.53;5092838;28;20440;-56
2024/01/27 07:22:29;;;;;;;3.97;3.30;;;;;;;2.95;64.73;95842.50;5093207;28;20523;-57
2024/01/27 07:24:58;;;;;;;12.90;2.80;;;;;;;2.95;65.24;95834.66;5093028;28;20559;-56
2024/01/27 07:27:26;;;;;;;1.93;1.83;;;;;;;2.95;64.42;95800.63;5092419;28;20436;-56
2024/01/27 07:29:55;;;;;;;7.00;4.23;;;;;;;3.31;64.03;95829.63;5092675;28;20444;-56
2024/01/27 07:32:26;;;;;;;17.33;3.30;;;;;;;3.47;63.68;95826.47;5078642;28;20547;-55
2024/01/27 07:34:54;;;;;;;3.63;3.43;;;;;;;3.54;62.92;95821.97;5092210;28;20440;-56
2024/01/27 07:37:23;;;;;;;3.40;2.67;;;;;;;3.46;63.07;95813.59;5092213;28;20519;-56
2024/01/27 07:39:53;;;;;;;4.57;2.63;;;;;;;3.78;62.45;95823.03;5092449;28;20448;-56
2024/01/27 07:42:21;;;;;;;2.00;1.90;;;;;;;3.82;62.26;95829.44;5066684;28;20451;-56
2024/01/27 07:44:50;;;;;;;14.30;1.40;;;;;;;2.93;61.65;95708.41;5091832;28;20494;-55
2024/01/27 07:47:19;;;;;;;1.43;1.43;;;;;;;3.94;61.35;95824.31;5091722;28;20441;-56
2024/01/27 07:49:48;;;;;;;3.90;0.83;;;;;;;4.12;60.83;95825.16;5092251;28;20464;-55
2024/01/27 07:52:18;;;;;;;2.07;1.67;;;;;;;3.84;61.79;95836.06;5092374;28;20443;-56
2024/01/27 07:54:46;;;;;;;2.33;2.13;;;;;;;3.53;62.17;95841.38;5088281;28;20474;-56
2024/01/27 07:57:17;;;;;;;4.30;2.10;;;;;;;3.00;63.64;95826.97;5076771;28;20438;-56
2024/01/27 07:59:45;;;;;;;3.50;1.90;;;;;;;3.21;64.37;95834.53;5072315;28;20441;-56
2024/01/27 08:02:14;;;;;;;6.10;2.80;;;;;;;3.63;62.67;95831.22;5072063;28;20445;-56
2024/01/27 08:04:42;;;;;;;3.83;1.27;;;;;;;3.48;62.29;95787.97;5071493;28;20562;-56
2024/01/27 08:07:14;;;;;;;4.70;3.03;;;;;;;3.03;65.53;95831.81;5071674;28;20946;-56
2024/01/27 08:09:43;;;;;;;2.00;1.90;;;;;;;3.38;65.26;95835.63;5072302;28;20444;-56
2024/01/27 08:12:12;;;;;;;2.57;2.37;;;;;;;3.33;66.01;95834.63;5084772;28;20871;-55
2024/01/27 08:14:42;;;;;;;2.93;2.80;;;;;;;2.85;67.55;95802.88;5089687;28;20433;-57
2024/01/27 08:17:11;;;;;;;4.93;2.17;;;;;;;3.14;67.82;95823.25;5092207;28;20884;-57
2024/01/27 08:19:39;;;;;;;1.63;1.53;;;;;;;3.12;67.04;95815.63;5090944;28;20576;-56
2024/01/27 08:22:09;;;;;;;2.53;2.37;;;;;;;3.45;66.18;95818.03;5092102;28;20443;-56
2024/01/27 08:24:37;;;;;;;1.20;1.10;;;;;;;3.34;66.31;95800.34;5091705;28;20471;-56
2024/01/27 08:27:06;;;;;;;1.13;1.13;;;;;;;3.51;65.62;95821.63;5091853;28;20944;-56
2024/01/27 08:29:35;;;;;;;1.60;1.50;;;;;;;2.74;64.78;95701.47;5091818;28;20440;-56
2024/01/27 08:32:06;;;;;;;2.47;2.30;;;;;;;3.38;65.39;95806.81;5091631;28;20972;-56
2024/01/27 08:34:35;;;;;;;1.53;1.47;;;;;;;3.07;65.40;95709.91;5091832;28;20446;-56
2024/01/27 08:37:04;;;;;;;0.50;0.50;;;;;;;3.65;65.05;95792.47;5091292;28;20476;-56
2024/01/27 08:39:32;;;;;;;5.77;1.23;;;;;;;3.09;66.49;95778.56;5091677;28;20444;-56
2024/01/27 08:42:01;;;;;;;2.40;1.57;;;;;;;2.97;66.81;95782.88;5090826;28;20947;-56
2024/01/27 08:44:30;;;;;;;2.50;1.77;;;;;;;3.43;66.81;95785.19;5091147;28;20464;-56
2024/01/27 08:46:58;;;;;;;8.53;2.80;;;;;;;3.49;66.11;95779.88;5091727;28;20995;-56
2024/01/27 08:49:31;;;;;;;10.43;3.37;;;;;;;3.15;67.73;95769.88;5091358;28;21066;-56
2024/01/27 08:52:00;;;;;;;1.60;1.50;;;;;;;4.71;64.19;95777.25;5091061;28;20440;-57
2024/01/27 08:54:29;;;;;;;2.80;1.57;;;;;;;5.52;62.68;95764.38;5091385;28;20476;-58
2024/01/27 08:56:58;;;;;;;3.93;1.83;;;;;;;6.16;61.20;95731.13;5091447;28;20839;-58
2024/01/27 08:59:26;;;;;;;2.07;1.73;;;;;;;7.04;57.54;95758.69;5091847;28;20948;-57
2024/01/27 09:01:55;;;;;;;1.80;1.70;;;;;;;7.80;55.14;95738.84;5090513;28;20440;-56
2024/01/27 09:04:24;;;;;;;2.83;2.57;;;;;;;8.68;53.78;95735.28;5090471;28;20853;-56
2024/01/27 09:06:54;;;;;;;4.00;2.37;;;;;;;9.44;49.24;95736.88;5091404;28;20536;-55
2024/01/27 09:09:22;;;;;;;5.70;2.33;;;;;;;10.23;47.44;95734.31;5091503;28;20444;-56
2024/01/27 09:11:51;;;;;;;1.50;1.00;;;;;;;11.06;46.50;95715.56;5091412;28;20451;-56
2024/01/27 09:14:20;;;;;;;5.43;1.33;;;;;;;10.54;44.57;95656.56;5091165;28;20436;-56
2024/01/27 09:16:48;;;;;;;3.57;2.50;;;;;;;10.76;45.96;95651.84;5091637;28;20846;-57
2024/01/27 09:19:17;;;;;;;2.83;0.87;;;;;;;12.31;42.23;95679.44;5091430;28;20440;-55
2024/01/27 09:21:46;;;;;;;2.53;0.90;;;;;;;12.07;42.88;95707.63;5091577;28;20448;-55
2024/01/27 09:24:16;;;;;;;3.53;3.40;;;;;;;11.67;41.76;95630.66;5091409;28;20442;-56
2024/01/27 09:26:45;;;;;;;3.57;1.83;;;;;;;12.18;41.73;95687.97;5090156;28;20890;-55
2024/01/27 09:29:14;;;;;;;4.80;1.27;;;;;;;12.17;42.93;95681.03;5091076;28;20436;-55
2024/01/27 09:31:42;;;;;;;1.80;0.67;;;;;;;12.66;40.75;95658.00;5093309;28;20473;-55
2024/01/27 09:34:11;;;;;;;1.37;1.27;;;;;;;13.19;39.85;95647.63;5090203;28;20433;-56
2024/01/27 09:36:40;;;;;;;4.30;0.90;;;;;;;13.99;39.56;95684.22;5086969;28;20980;-56
2024/01/27 09:39:09;;;;;;;3.30;2.10;;;;;;;14.21;37.91;95619.78;5094895;28;20436;-57
2024/01/27 09:41:39;;;;;;;1.60;1.50;;;;;;;13.77;39.13;95640.47;5095190;28;20436;-59
2024/01/27 09:44:08;;;;;;;3.50;1.27;;;;;;;13.67;37.46;95628.06;5066692;28;20869;-59
2024/01/27 09:46:37;;;;;;;1.50;1.37;;;;;;;11.83;40.11;95643.69;5089996;28;20941;-62
2024/01/27 09:49:06;;;;;;;1.63;1.33;;;;;;;11.85;41.93;95627.47;5094778;28;20467;-61
2024/01/27 09:51:35;;;;;;;1.97;1.10;;;;;;;12.28;40.88;95628.66;5080830;28;20493;-59
2024/01/27 09:54:04;;;;;;;1.80;1.70;;;;;;;12.85;40.27;95604.97;5093888;28;20471;-59
2024/01/27 09:56:33;;;;;;;0.60;0.60;;;;;;;12.57;41.03;95582.53;5094157;28;20970;-60
2024/01/27 09:59:07;;;;;;;1.27;1.07;;;;;;;13.31;40.61;95541.56;5094601;28;20442;-60
2024/01/27 10:01:38;;;;;;;1.57;1.47;;;;;;;13.86;40.87;95602.28;5094777;28;20830;-59
2024/01/27 10:04:09;;;;;;;1.40;1.30;;;;;;;14.65;39.26;95595.50;5094182;28;20486;-59
2024/01/27 10:06:39;;;;;;;2.87;1.83;;;;;;;14.79;38.46;95616.94;5094280;28;20483;-59
2024/01/27 10:09:09;;;;;;;1.63;1.53;;;;;;;14.08;40.05;95632.97;5093495;28;20440;-59
2024/01/27 10:11:43;;;;;;;2.50;1.33;;;;;;;13.99;39.73;95612.28;5094084;28;20468;-59
2024/01/27 10:14:13;;;;;;;0.90;0.70;;;;;;;15.54;39.12;95636.38;5093908;28;20432;-59
2024/01/27 10:16:43;;;;;;;1.63;1.20;;;;;;;15.40;38.04;95617.63;5067887;28;20463;-59
2024/01/27 10:19:17;;;;;;;1.53;1.43;;;;;;;15.93;38.19;95586.00;5093995;28;20596;-60
2024/01/27 10:21:46;;;;;;;2.00;0.60;;;;;;;17.10;35.39;95599.34;5094563;28;20475;-58
2024/01/27 10:24:15;;;;;;;3.40;0.93;;;;;;;17.97;35.70;95620.28;5094189;28;20436;-58
2024/01/27 10:26:44;;;;;;;4.83;1.07;;;;;;;16.93;36.32;95601.88;5094210;28;20484;-58
2024/01/27 10:29:14;;;;;;;6.27;2.03;;;;;;;18.14;34.47;95604.25;5094028;28;20501;-59
2024/01/27 10:31:43;;;;;;;1.67;1.27;;;;;;;18.06;34.52;95623.03;5093569;28;20444;-58
2024/01/27 10:34:14;;;;;;;2.00;0.73;;;;;;;18.51;32.42;95621.00;5093464;28;20436;-59
2024/01/27 10:36:45;;;;;;;1.37;1.10;;;;;;;18.75;32.79;95622.19;5094010;28;20813;-57
2024/01/27 10:39:21;;;;;;;1.07;0.97;;;;;;;18.92;32.73;95627.56;5092039;28;20436;-58
2024/01/27 10:41:51;;;;;;;5.87;2.67;;;;;;;19.35;30.44;95621.44;5093388;28;20494;-57
2024/01/27 10:44:21;;;;;;;1.67;0.80;;;;;;;19.13;28.59;95567.84;5093379;28;20464;-56
2024/01/27 10:46:51;;;;;;;0.80;0.53;;;;;;;19.38;29.47;95561.72;5093757;28;20479;-58
2024/01/27 10:49:20;;;;;;;3.70;0.90;;;;;;;20.72;27.79;95583.41;5067556;28;20440;-57
2024/01/27 10:51:55;;;;;;;2.10;0.40;;;;;;;21.23;25.91;95580.34;5093129;28;20521;-57
2024/01/27 10:54:26;;;;;;;1.63;0.50;;;;;;;21.43;26.55;95584.13;5093582;28;20480;-58
2024/01/27 10:56:58;;;;;;;0.70;0.40;;;;;;;21.72;25.63;95569.75;5093836;28;20909;-57
2024/01/27 10:59:29;;;;;;;0.60;0.60;;;;;;;21.99;24.60;95552.97;5093281;28;20462;-57
2024/01/27 11:01:58;;;;;;;1.63;0.63;;;;;;;21.96;23.48;95532.06;5088350;28;20438;-56
2024/01/27 11:04:29;;;;;;;0.53;0.40;;;;;;;21.35;24.43;95590.41;5087276;28;20468;-57
2024/01/27 11:06:59;;;;;;;0.70;0.40;;;;;;;20.45;25.15;95559.63;5093419;28;20476;-56
2024/01/27 11:09:30;;;;;;;0.53;0.53;;;;;;;20.04;26.36;95587.97;5093347;28;20436;-58
2024/01/27 11:12:00;;;;;;;0.60;0.40;;;;;;;20.92;26.15;95608.78;5093052;28;20928;-57
2024/01/27 11:14:30;;;;;;;0.50;0.30;;;;;;;20.54;26.00;95580.00;5092261;28;20436;-57
2024/01/27 11:16:59;;;;;;;0.40;0.30;;;;;;;20.36;25.96;95583.13;5093059;28;20440;-57
2024/01/27 11:19:28;;;;;;;2.00;0.30;;;;;;;18.45;26.28;95569.34;5093273;28;20977;-56
2024/01/27 11:22:06;;;;;;;0.40;0.30;;;;;;;17.46;28.83;95537.66;5092240;28;20440;-57
2024/01/27 11:24:34;;;;;;;0.30;0.30;;;;;;;17.60;28.90;95577.81;5081784;28;20899;-52
2024/01/27 11:27:04;;;;;;;0.40;0.20;;;;;;;18.17;28.81;95506.28;5091778;28;20518;-54
2024/01/27 11:29:34;;;;;;;0.30;0.20;;;;;;;17.99;28.94;95585.09;5092387;28;20471;-53
2024/01/27 11:32:04;;;;;;;0.40;0.30;;;;;;;17.94;28.94;95540.44;5092007;28;20833;-52
2024/01/27 11:34:44;;;;;;;0.30;0.20;;;;;;;17.87;29.00;95569.59;5092936;28;20494;-52
2024/01/27 11:37:17;;;;;;;0.40;0.30;;;;;;;18.89;29.51;95579.88;5091001;28;20436;-53
2024/01/27 11:39:46;;;;;;;0.60;0.40;;;;;;;19.23;27.94;95580.97;5092671;28;20468;-52
2024/01/27 11:42:15;;;;;;;0.30;0.20;;;;;;;18.46;28.24;95576.28;5092889;28;20514;-52
2024/01/27 11:44:46;;;;;;;0.57;0.30;;;;;;;17.81;29.73;95597.63;5092282;28;20971;-51
2024/01/27 11:47:18;;;;;;;0.40;0.30;;;;;;;18.75;29.29;95595.31;5092613;28;20863;-52
2024/01/27 11:49:53;;;;;;;0.40;0.30;;;;;;;18.60;28.66;95592.28;5091978;28;20519;-52